Centerbrook, Connecticut
Current Conditions -  °F | °C
As of 3:55 AM on Wednesday 22 Oct 2014 (Local Time) from KSNC Reporting Station
Overcast Overcast  
Wind Chill: 12°   Ceiling: 1000
Heat Index: 12°   Visibility: 10mi
Dew Point: 11°   Wind: 7mph
Humidity: 94%   Direction: 30°NNE
Pressure: 29.92"   Gusts: NA
Location:  41.35°N, 72.42°W
Report Text: KSNC 220755Z AUTO 03006KT 10SM OVC010 12/11 A2992 RMK AO2
Loading
Personal Weather Stations






























Interactive Weather Map
Tropical Storm Tracking
New forecast layout! Learn more

10-Day Weather Forecast

Advertisements
Track Severe Weather on mobile